sensor_id;sensor_type;location;lat;lon;timestamp;pressure;altitude;pressure_sealevel;temperature;humidity
9421;BME280;4749;51.398;5.466;2022-09-09T00:02:24;100655.38;;;14.01;100.00
9421;BME280;4749;51.398;5.466;2022-09-09T00:05:19;100654.59;;;13.95;100.00
9421;BME280;4749;51.398;5.466;2022-09-09T00:07:54;100651.06;;;13.94;100.00
9421;BME280;4749;51.398;5.466;2022-09-09T00:10:36;100654.63;;;13.92;100.00
9421;BME280;4749;51.398;5.466;2022-09-09T00:13:35;100655.50;;;13.92;100.00
9421;BME280;4749;51.398;5.466;2022-09-09T00:16:24;100651.00;;;14.00;100.00
9421;BME280;4749;51.398;5.466;2022-09-09T00:19:05;100643.16;;;13.96;100.00
9421;BME280;4749;51.398;5.466;2022-09-09T00:21:43;100644.03;;;13.96;100.00
9421;BME280;4749;51.398;5.466;2022-09-09T00:24:32;100641.44;;;13.90;100.00
9421;BME280;4749;51.398;5.466;2022-09-09T00:29:55;100643.25;;;13.88;100.00
9421;BME280;4749;51.398;5.466;2022-09-09T00:32:24;100642.47;;;13.80;100.00
9421;BME280;4749;51.398;5.466;2022-09-09T00:35:22;100643.41;;;13.76;100.00
9421;BME280;4749;51.398;5.466;2022-09-09T00:37:48;100627.53;;;13.79;100.00
9421;BME280;4749;51.398;5.466;2022-09-09T00:40:50;100631.94;;;13.77;100.00
9421;BME280;4749;51.398;5.466;2022-09-09T00:46:26;100630.22;;;13.74;100.00
9421;BME280;4749;51.398;5.466;2022-09-09T00:52:24;100627.56;;;13.74;100.00
9421;BME280;4749;51.398;5.466;2022-09-09T00:57:52;100619.59;;;13.79;100.00
9421;BME280;4749;51.398;5.466;2022-09-09T01:00:29;100620.41;;;13.83;100.00
9421;BME280;4749;51.398;5.466;2022-09-09T01:11:32;100620.38;;;13.84;100.00
9421;BME280;4749;51.398;5.466;2022-09-09T01:16:55;100627.59;;;13.73;100.00
9421;BME280;4749;51.398;5.466;2022-09-09T01:25:29;100617.88;;;13.75;100.00
9421;BME280;4749;51.398;5.466;2022-09-09T01:28:01;100617.91;;;13.73;100.00
9421;BME280;4749;51.398;5.466;2022-09-09T01:30:29;100614.41;;;13.70;100.00
9421;BME280;4749;51.398;5.466;2022-09-09T01:32:58;100611.91;;;13.61;100.00
9421;BME280;4749;51.398;5.466;2022-09-09T01:38:12;100611.81;;;13.67;100.00
9421;BME280;4749;51.398;5.466;2022-09-09T01:40:40;100608.38;;;13.63;100.00
9421;BME280;4749;51.398;5.466;2022-09-09T01:43:07;100609.19;;;13.67;100.00
9421;BME280;4749;51.398;5.466;2022-09-09T01:45:34;100607.44;;;13.66;100.00
9421;BME280;4749;51.398;5.466;2022-09-09T01:48:02;100596.75;;;13.75;100.00
9421;BME280;4749;51.398;5.466;2022-09-09T01:50:30;100601.22;;;13.68;100.00
9421;BME280;4749;51.398;5.466;2022-09-09T01:52:59;100596.81;;;13.72;100.00
9421;BME280;4749;51.398;5.466;2022-09-09T01:55:40;100594.16;;;13.72;100.00
9421;BME280;4749;51.398;5.466;2022-09-09T02:04:49;100595.88;;;13.74;100.00
9421;BME280;4749;51.398;5.466;2022-09-09T02:10:05;100581.09;;;13.63;100.00
9421;BME280;4749;51.398;5.466;2022-09-09T02:12:41;100588.78;;;13.76;100.00
9421;BME280;4749;51.398;5.466;2022-09-09T02:15:47;100588.75;;;13.78;100.00
9421;BME280;4749;51.398;5.466;2022-09-09T02:18:32;100588.75;;;13.81;100.00
9421;BME280;4749;51.398;5.466;2022-09-09T02:21:02;100603.69;;;13.82;100.00
9421;BME280;4749;51.398;5.466;2022-09-09T02:23:30;100593.13;;;13.82;100.00
9421;BME280;4749;51.398;5.466;2022-09-09T02:26:00;100592.28;;;13.78;100.00
9421;BME280;4749;51.398;5.466;2022-09-09T02:28:31;100590.56;;;13.76;100.00
9421;BME280;4749;51.398;5.466;2022-09-09T02:30:59;100589.75;;;13.72;100.00
9421;BME280;4749;51.398;5.466;2022-09-09T02:33:35;100581.94;;;13.65;100.00
9421;BME280;4749;51.398;5.466;2022-09-09T02:36:05;100581.03;;;13.66;100.00
9421;BME280;4749;51.398;5.466;2022-09-09T02:38:42;100585.47;;;13.64;100.00
9421;BME280;4749;51.398;5.466;2022-09-09T02:41:12;100582.88;;;13.59;100.00
9421;BME280;4749;51.398;5.466;2022-09-09T02:43:39;100580.22;;;13.61;100.00
9421;BME280;4749;51.398;5.466;2022-09-09T02:49:18;100581.19;;;13.53;100.00
9421;BME280;4749;51.398;5.466;2022-09-09T02:52:13;100576.69;;;13.60;100.00
9421;BME280;4749;51.398;5.466;2022-09-09T02:54:43;100580.38;;;13.50;100.00
9421;BME280;4749;51.398;5.466;2022-09-09T02:57:24;100584.59;;;13.62;100.00
9421;BME280;4749;51.398;5.466;2022-09-09T02:59:53;100581.94;;;13.62;100.00
9421;BME280;4749;51.398;5.466;2022-09-09T03:02:20;100583.69;;;13.64;100.00
9421;BME280;4749;51.398;5.466;2022-09-09T03:04:47;100579.31;;;13.63;100.00
9421;BME280;4749;51.398;5.466;2022-09-09T03:07:19;100588.16;;;13.59;100.00
9421;BME280;4749;51.398;5.466;2022-09-09T03:09:46;100580.16;;;13.65;100.00
9421;BME280;4749;51.398;5.466;2022-09-09T03:12:13;100582.09;;;13.54;100.00
9421;BME280;4749;51.398;5.466;2022-09-09T03:14:41;100578.44;;;13.63;100.00
9421;BME280;4749;51.398;5.466;2022-09-09T03:17:08;100584.66;;;13.57;100.00
9421;BME280;4749;51.398;5.466;2022-09-09T03:19:36;100585.50;;;13.59;100.00
9421;BME280;4749;51.398;5.466;2022-09-09T03:22:04;100582.88;;;13.59;100.00
9421;BME280;4749;51.398;5.466;2022-09-09T03:24:31;100586.38;;;13.60;100.00
9421;BME280;4749;51.398;5.466;2022-09-09T03:26:58;100586.34;;;13.61;100.00
9421;BME280;4749;51.398;5.466;2022-09-09T03:29:25;100595.16;;;13.63;100.00
9421;BME280;4749;51.398;5.466;2022-09-09T03:31:52;100592.56;;;13.59;100.00
9421;BME280;4749;51.398;5.466;2022-09-09T03:34:19;100589.81;;;13.66;100.00
9421;BME280;4749;51.398;5.466;2022-09-09T03:36:46;100585.38;;;13.68;100.00
9421;BME280;4749;51.398;5.466;2022-09-09T03:39:15;100595.22;;;13.59;100.00
9421;BME280;4749;51.398;5.466;2022-09-09T03:41:42;100590.78;;;13.59;100.00
9421;BME280;4749;51.398;5.466;2022-09-09T03:44:12;100589.91;;;13.60;100.00
9421;BME280;4749;51.398;5.466;2022-09-09T03:46:39;100595.94;;;13.71;100.00
9421;BME280;4749;51.398;5.466;2022-09-09T03:49:06;100594.94;;;13.80;100.00
9421;BME280;4749;51.398;5.466;2022-09-09T03:51:33;100594.97;;;13.75;100.00
9421;BME280;4749;51.398;5.466;2022-09-09T03:54:04;100598.41;;;13.82;100.00
9421;BME280;4749;51.398;5.466;2022-09-09T03:56:31;100588.78;;;13.79;100.00
9421;BME280;4749;51.398;5.466;2022-09-09T03:58:58;100594.03;;;13.81;100.00
9421;BME280;4749;51.398;5.466;2022-09-09T04:01:26;100594.88;;;13.83;100.00
9421;BME280;4749;51.398;5.466;2022-09-09T04:03:53;100595.66;;;13.90;100.00
9421;BME280;4749;51.398;5.466;2022-09-09T04:06:21;100596.59;;;13.84;100.00
9421;BME280;4749;51.398;5.466;2022-09-09T04:08:48;100595.78;;;13.82;100.00
9421;BME280;4749;51.398;5.466;2022-09-09T04:11:16;100598.31;;;13.88;100.00
9421;BME280;4749;51.398;5.466;2022-09-09T04:13:43;100594.78;;;13.89;100.00
9421;BME280;4749;51.398;5.466;2022-09-09T04:16:12;100585.13;;;13.85;100.00
9421;BME280;4749;51.398;5.466;2022-09-09T04:18:43;100584.28;;;13.85;100.00
9421;BME280;4749;51.398;5.466;2022-09-09T04:21:10;100594.78;;;13.89;100.00
9421;BME280;4749;51.398;5.466;2022-09-09T04:23:39;100584.25;;;13.86;100.00
9421;BME280;4749;51.398;5.466;2022-09-09T04:26:06;100588.53;;;13.93;100.00
9421;BME280;4749;51.398;5.466;2022-09-09T04:28:35;100588.53;;;13.96;100.00
9421;BME280;4749;51.398;5.466;2022-09-09T04:31:19;100580.50;;;14.01;100.00
9421;BME280;4749;51.398;5.466;2022-09-09T04:33:48;100577.03;;;13.99;100.00
9421;BME280;4749;51.398;5.466;2022-09-09T04:36:17;100573.53;;;13.97;100.00
9421;BME280;4749;51.398;5.466;2022-09-09T04:38:46;100578.75;;;14.00;100.00
9421;BME280;4749;51.398;5.466;2022-09-09T04:41:13;100572.69;;;13.93;100.00
9421;BME280;4749;51.398;5.466;2022-09-09T04:43:40;100575.28;;;13.98;100.00
9421;BME280;4749;51.398;5.466;2022-09-09T04:46:07;100577.03;;;13.97;100.00
9421;BME280;4749;51.398;5.466;2022-09-09T04:48:34;100569.91;;;14.02;100.00
9421;BME280;4749;51.398;5.466;2022-09-09T04:51:05;100579.56;;;14.03;100.00
9421;BME280;4749;51.398;5.466;2022-09-09T04:53:32;100569.69;;;14.16;100.00
9421;BME280;4749;51.398;5.466;2022-09-09T04:56:12;100574.13;;;14.14;100.00
9421;BME280;4749;51.398;5.466;2022-09-09T04:58:40;100576.00;;;14.07;100.00
9421;BME280;4749;51.398;5.466;2022-09-09T05:01:17;100566.22;;;14.11;100.00
9421;BME280;4749;51.398;5.466;2022-09-09T05:03:45;100568.94;;;14.08;100.00
9421;BME280;4749;51.398;5.466;2022-09-09T05:06:16;100571.56;;;14.09;100.00
9421;BME280;4749;51.398;5.466;2022-09-09T05:08:45;100568.94;;;14.08;100.00
9421;BME280;4749;51.398;5.466;2022-09-09T05:11:21;100567.19;;;14.07;100.00
9421;BME280;4749;51.398;5.466;2022-09-09T05:13:53;100565.13;;;14.26;100.00
9421;BME280;4749;51.398;5.466;2022-09-09T05:16:21;100561.63;;;14.24;100.00
9421;BME280;4749;51.398;5.466;2022-09-09T05:18:50;100560.78;;;14.22;100.00
9421;BME280;4749;51.398;5.466;2022-09-09T05:21:23;100571.53;;;14.13;100.00
9421;BME280;4749;51.398;5.466;2022-09-09T05:23:50;100566.28;;;14.08;100.00
9421;BME280;4749;51.398;5.466;2022-09-09T05:26:21;100573.28;;;14.11;100.00
9421;BME280;4749;51.398;5.466;2022-09-09T05:28:49;100569.78;;;14.10;100.00
9421;BME280;4749;51.398;5.466;2022-09-09T05:31:18;100565.25;;;14.18;100.00
9421;BME280;4749;51.398;5.466;2022-09-09T05:33:47;100571.50;;;14.14;100.00
9421;BME280;4749;51.398;5.466;2022-09-09T05:36:20;100567.84;;;14.20;100.00
9421;BME280;4749;51.398;5.466;2022-09-09T05:38:49;100568.66;;;14.25;100.00
9421;BME280;4749;51.398;5.466;2022-09-09T05:41:17;100573.03;;;14.27;100.00
9421;BME280;4749;51.398;5.466;2022-09-09T05:43:44;100569.50;;;14.27;100.00
9421;BME280;4749;51.398;5.466;2022-09-09T05:46:20;100570.31;;;14.32;100.00
9421;BME280;4749;51.398;5.466;2022-09-09T05:48:49;100573.69;;;14.40;100.00
9421;BME280;4749;51.398;5.466;2022-09-09T05:51:25;100579.84;;;14.41;100.00
9421;BME280;4749;51.398;5.466;2022-09-09T05:53:53;100586.69;;;14.55;100.00
9421;BME280;4749;51.398;5.466;2022-09-09T05:56:24;100592.56;;;14.71;100.00
9421;BME280;4749;51.398;5.466;2022-09-09T05:58:53;100591.81;;;14.64;100.00
9421;BME280;4749;51.398;5.466;2022-09-09T06:01:35;100582.69;;;14.81;100.00
9421;BME280;4749;51.398;5.466;2022-09-09T06:04:03;100590.28;;;14.99;100.00
9421;BME280;4749;51.398;5.466;2022-09-09T06:06:33;100585.00;;;14.99;100.00
9421;BME280;4749;51.398;5.466;2022-09-09T06:09:05;100578.59;;;15.09;100.00
9421;BME280;4749;51.398;5.466;2022-09-09T06:11:33;100579.56;;;15.07;100.00
9421;BME280;4749;51.398;5.466;2022-09-09T06:14:03;100580.06;;;15.24;100.00
9421;BME280;4749;51.398;5.466;2022-09-09T06:16:31;100579.72;;;15.41;100.00
9421;BME280;4749;51.398;5.466;2022-09-09T06:19:02;100574.94;;;15.58;100.00
9421;BME280;4749;51.398;5.466;2022-09-09T06:21:35;100567.03;;;15.57;100.00
9421;BME280;4749;51.398;5.466;2022-09-09T06:24:07;100570.91;;;15.81;100.00
9421;BME280;4749;51.398;5.466;2022-09-09T06:26:37;100571.38;;;15.99;100.00
9421;BME280;4749;51.398;5.466;2022-09-09T06:29:07;100566.16;;;15.95;100.00
9421;BME280;4749;51.398;5.466;2022-09-09T06:31:36;100574.53;;;15.76;100.00
9421;BME280;4749;51.398;5.466;2022-09-09T06:34:08;100572.25;;;15.60;100.00
9421;BME280;4749;51.398;5.466;2022-09-09T06:36:38;100568.88;;;15.52;100.00
9421;BME280;4749;51.398;5.466;2022-09-09T06:39:06;100568.66;;;15.64;100.00
9421;BME280;4749;51.398;5.466;2022-09-09T06:41:40;100570.44;;;15.62;100.00
9421;BME280;4749;51.398;5.466;2022-09-09T06:44:10;100563.41;;;15.61;100.00
9421;BME280;4749;51.398;5.466;2022-09-09T06:46:40;100567.59;;;15.71;100.00
9421;BME280;4749;51.398;5.466;2022-09-09T06:49:08;100569.97;;;15.83;100.00
9421;BME280;4749;51.398;5.466;2022-09-09T06:51:37;100556.59;;;15.88;100.00
9421;BME280;4749;51.398;5.466;2022-09-09T06:54:11;100558.28;;;15.92;100.00
9421;BME280;4749;51.398;5.466;2022-09-09T06:56:41;100558.16;;;15.98;100.00
9421;BME280;4749;51.398;5.466;2022-09-09T06:59:12;100553.44;;;16.09;100.00
9421;BME280;4749;51.398;5.466;2022-09-09T07:01:42;100559.31;;;16.22;100.00
9421;BME280;4749;51.398;5.466;2022-09-09T07:04:18;100554.50;;;16.02;100.00
9421;BME280;4749;51.398;5.466;2022-09-09T07:06:46;100564.91;;;16.10;100.00
9421;BME280;4749;51.398;5.466;2022-09-09T07:09:15;100565.47;;;16.24;100.00
9421;BME280;4749;51.398;5.466;2022-09-09T07:11:51;100563.63;;;16.26;100.00
9421;BME280;4749;51.398;5.466;2022-09-09T07:14:19;100563.31;;;16.40;100.00
9421;BME280;4749;51.398;5.466;2022-09-09T07:16:48;100564.78;;;16.50;100.00
9421;BME280;4749;51.398;5.466;2022-09-09T07:19:26;100561.81;;;16.62;100.00
9421;BME280;4749;51.398;5.466;2022-09-09T07:21:55;100558.78;;;16.77;100.00
9421;BME280;4749;51.398;5.466;2022-09-09T07:24:26;100552.75;;;16.71;100.00
9421;BME280;4749;51.398;5.466;2022-09-09T07:27:12;100552.09;;;16.61;100.00
9421;BME280;4749;51.398;5.466;2022-09-09T07:29:41;100551.38;;;16.90;100.00
9421;BME280;4749;51.398;5.466;2022-09-09T07:32:08;100549.34;;;16.98;100.00
9421;BME280;4749;51.398;5.466;2022-09-09T07:34:35;100539.94;;;16.86;100.00
9421;BME280;4749;51.398;5.466;2022-09-09T07:37:02;100549.31;;;17.29;100.00
9421;BME280;4749;51.398;5.466;2022-09-09T07:39:29;100554.09;;;17.18;100.00
9421;BME280;4749;51.398;5.466;2022-09-09T07:41:56;100549.78;;;17.14;100.00
9421;BME280;4749;51.398;5.466;2022-09-09T07:44:27;100553.06;;;17.24;100.00
9421;BME280;4749;51.398;5.466;2022-09-09T07:46:54;100548.34;;;17.33;100.00
9421;BME280;4749;51.398;5.466;2022-09-09T07:49:21;100545.16;;;17.50;100.00
9421;BME280;4749;51.398;5.466;2022-09-09T07:51:56;100548.19;;;17.67;100.00
9421;BME280;4749;51.398;5.466;2022-09-09T07:54:24;100546.50;;;17.63;100.00
9421;BME280;4749;51.398;5.466;2022-09-09T07:56:52;100551.63;;;17.71;100.00
9421;BME280;4749;51.398;5.466;2022-09-09T07:59:19;100550.56;;;17.47;100.00
9421;BME280;4749;51.398;5.466;2022-09-09T08:01:50;100546.84;;;17.53;100.00
9421;BME280;4749;51.398;5.466;2022-09-09T08:04:23;100551.06;;;17.60;100.00
9421;BME280;4749;51.398;5.466;2022-09-09T08:06:58;100556.91;;;17.43;100.00
9421;BME280;4749;51.398;5.466;2022-09-09T08:09:27;100560.72;;;17.62;100.00
9421;BME280;4749;51.398;5.466;2022-09-09T08:11:56;100550.38;;;17.53;100.00
9421;BME280;4749;51.398;5.466;2022-09-09T08:14:25;100564.63;;;17.80;100.00
9421;BME280;4749;51.398;5.466;2022-09-09T08:16:52;100553.25;;;17.77;100.00
9421;BME280;4749;51.398;5.466;2022-09-09T08:19:21;100556.81;;;17.76;100.00
9421;BME280;4749;51.398;5.466;2022-09-09T08:21:48;100556.41;;;17.88;100.00
9421;BME280;4749;51.398;5.466;2022-09-09T08:24:16;100557.66;;;18.04;100.00
9421;BME280;4749;51.398;5.466;2022-09-09T08:26:46;100551.66;;;18.25;100.00
9421;BME280;4749;51.398;5.466;2022-09-09T08:29:17;100556.75;;;18.05;100.00
9421;BME280;4749;51.398;5.466;2022-09-09T08:31:54;100548.25;;;18.20;100.00
9421;BME280;4749;51.398;5.466;2022-09-09T08:34:22;100547.22;;;17.98;100.00
9421;BME280;4749;51.398;5.466;2022-09-09T08:36:50;100556.66;;;18.35;100.00
9421;BME280;4749;51.398;5.466;2022-09-09T08:39:20;100556.59;;;17.82;100.00
9421;BME280;4749;51.398;5.466;2022-09-09T08:45:37;100558.47;;;18.06;100.00
9421;BME280;4749;51.398;5.466;2022-09-09T08:48:43;100561.03;;;17.83;100.00
9421;BME280;4749;51.398;5.466;2022-09-09T08:51:14;100562.41;;;17.94;100.00
9421;BME280;4749;51.398;5.466;2022-09-09T08:53:46;100563.81;;;17.78;100.00
9421;BME280;4749;51.398;5.466;2022-09-09T08:56:20;100559.28;;;17.52;100.00
9421;BME280;4749;51.398;5.466;2022-09-09T08:58:54;100559.31;;;17.80;100.00
9421;BME280;4749;51.398;5.466;2022-09-09T09:01:44;100559.25;;;17.82;100.00
9421;BME280;4749;51.398;5.466;2022-09-09T09:13:33;100577.75;;;17.86;100.00
9421;BME280;4749;51.398;5.466;2022-09-09T09:16:30;100577.94;;;17.80;100.00
9421;BME280;4749;51.398;5.466;2022-09-09T09:19:00;100577.00;;;17.81;100.00
9421;BME280;4749;51.398;5.466;2022-09-09T09:21:32;100582.25;;;17.84;100.00
9421;BME280;4749;51.398;5.466;2022-09-09T09:24:01;100586.06;;;17.76;100.00
9421;BME280;4749;51.398;5.466;2022-09-09T09:26:34;100575.81;;;17.62;100.00
9421;BME280;4749;51.398;5.466;2022-09-09T09:29:12;100585.84;;;17.52;100.00
9421;BME280;4749;51.398;5.466;2022-09-09T09:32:02;100580.06;;;17.67;100.00
9421;BME280;4749;51.398;5.466;2022-09-09T09:34:30;100579.44;;;17.89;100.00
9421;BME280;4749;51.398;5.466;2022-09-09T09:37:01;100577.09;;;18.33;100.00
9421;BME280;4749;51.398;5.466;2022-09-09T09:39:31;100579.88;;;18.56;100.00
9421;BME280;4749;51.398;5.466;2022-09-09T09:42:23;100571.78;;;18.86;100.00
9421;BME280;4749;51.398;5.466;2022-09-09T09:44:51;100563.06;;;18.80;100.00
9421;BME280;4749;51.398;5.466;2022-09-09T09:47:23;100568.59;;;18.48;100.00
9421;BME280;4749;51.398;5.466;2022-09-09T09:49:59;100586.56;;;18.41;100.00
9421;BME280;4749;51.398;5.466;2022-09-09T09:52:30;100593.88;;;17.51;100.00
9421;BME280;4749;51.398;5.466;2022-09-09T09:54:58;100599.59;;;17.37;100.00
9421;BME280;4749;51.398;5.466;2022-09-09T09:57:33;100593.06;;;17.17;100.00
9421;BME280;4749;51.398;5.466;2022-09-09T10:00:16;100596.72;;;17.13;100.00
9421;BME280;4749;51.398;5.466;2022-09-09T10:02:50;100591.34;;;17.16;100.00
9421;BME280;4749;51.398;5.466;2022-09-09T10:05:22;100598.44;;;17.16;100.00
9421;BME280;4749;51.398;5.466;2022-09-09T10:08:12;100596.00;;;17.08;100.00
9421;BME280;4749;51.398;5.466;2022-09-09T10:11:01;100598.53;;;17.11;100.00
9421;BME280;4749;51.398;5.466;2022-09-09T10:14:12;100606.50;;;17.11;100.00
9421;BME280;4749;51.398;5.466;2022-09-09T10:26:38;100622.69;;;16.68;100.00
9421;BME280;4749;51.398;5.466;2022-09-09T10:47:20;100630.25;;;17.17;100.00
9421;BME280;4749;51.398;5.466;2022-09-09T10:55:45;100619.31;;;17.59;100.00
9421;BME280;4749;51.398;5.466;2022-09-09T10:58:25;100627.06;;;17.67;100.00
9421;BME280;4749;51.398;5.466;2022-09-09T11:01:01;100627.75;;;17.73;100.00
9421;BME280;4749;51.398;5.466;2022-09-09T11:03:37;100624.28;;;18.01;100.00
9421;BME280;4749;51.398;5.466;2022-09-09T11:06:17;100615.50;;;18.25;100.00
9421;BME280;4749;51.398;5.466;2022-09-09T11:08:46;100628.97;;;18.47;100.00
9421;BME280;4749;51.398;5.466;2022-09-09T11:11:40;100619.84;;;18.54;100.00
9421;BME280;4749;51.398;5.466;2022-09-09T11:17:04;100623.69;;;18.46;100.00
9421;BME280;4749;51.398;5.466;2022-09-09T11:19:41;100612.03;;;18.50;100.00
9421;BME280;4749;51.398;5.466;2022-09-09T11:25:41;100608.59;;;18.73;100.00
9421;BME280;4749;51.398;5.466;2022-09-09T11:44:41;100614.22;;;18.37;100.00
9421;BME280;4749;51.398;5.466;2022-09-09T11:47:28;100616.28;;;18.01;100.00
9421;BME280;4749;51.398;5.466;2022-09-09T11:50:29;100612.06;;;17.94;100.00
9421;BME280;4749;51.398;5.466;2022-09-09T11:55:40;100622.88;;;18.17;100.00
9421;BME280;4749;51.398;5.466;2022-09-09T12:00:46;100606.59;;;18.53;100.00
9421;BME280;4749;51.398;5.466;2022-09-09T12:03:48;100600.78;;;18.42;100.00
9421;BME280;4749;51.398;5.466;2022-09-09T12:15:02;100589.53;;;19.33;100.00
9421;BME280;4749;51.398;5.466;2022-09-09T12:17:31;100592.31;;;19.30;100.00
9421;BME280;4749;51.398;5.466;2022-09-09T12:23:18;100576.34;;;19.54;100.00
9421;BME280;4749;51.398;5.466;2022-09-09T12:28:39;100570.28;;;19.25;100.00
9421;BME280;4749;51.398;5.466;2022-09-09T12:34:20;100576.84;;;19.40;100.00
9421;BME280;4749;51.398;5.466;2022-09-09T12:37:02;100575.72;;;18.99;100.00
9421;BME280;4749;51.398;5.466;2022-09-09T12:39:38;100564.06;;;18.78;100.00
9421;BME280;4749;51.398;5.466;2022-09-09T12:42:20;100573.69;;;19.05;100.00
9421;BME280;4749;51.398;5.466;2022-09-09T12:44:56;100567.50;;;19.05;100.00
9421;BME280;4749;51.398;5.466;2022-09-09T12:47:52;100560.13;;;18.88;100.00
9421;BME280;4749;51.398;5.466;2022-09-09T12:50:26;100554.91;;;19.10;100.00
9421;BME280;4749;51.398;5.466;2022-09-09T12:53:01;100557.97;;;19.23;100.00
9421;BME280;4749;51.398;5.466;2022-09-09T12:55:36;100539.25;;;19.24;100.00
9421;BME280;4749;51.398;5.466;2022-09-09T12:58:06;100556.97;;;19.02;100.00
9421;BME280;4749;51.398;5.466;2022-09-09T13:00:34;100550.75;;;19.26;100.00
9421;BME280;4749;51.398;5.466;2022-09-09T13:03:16;100546.72;;;19.85;100.00
9421;BME280;4749;51.398;5.466;2022-09-09T13:05:43;100542.78;;;19.48;100.00
9421;BME280;4749;51.398;5.466;2022-09-09T13:08:13;100541.41;;;19.83;100.00
9421;BME280;4749;51.398;5.466;2022-09-09T13:10:51;100541.56;;;20.02;100.00
9421;BME280;4749;51.398;5.466;2022-09-09T13:13:40;100534.34;;;20.04;100.00
9421;BME280;4749;51.398;5.466;2022-09-09T13:16:29;100522.69;;;20.49;100.00
9421;BME280;4749;51.398;5.466;2022-09-09T13:19:16;100537.84;;;20.69;100.00
9421;BME280;4749;51.398;5.466;2022-09-09T13:21:44;100527.50;;;20.39;100.00
9421;BME280;4749;51.398;5.466;2022-09-09T13:24:40;100538.13;;;20.41;100.00
9421;BME280;4749;51.398;5.466;2022-09-09T13:27:35;100522.50;;;20.11;100.00
9421;BME280;4749;51.398;5.466;2022-09-09T13:33:22;100531.38;;;19.68;100.00
9421;BME280;4749;51.398;5.466;2022-09-09T13:35:57;100528.88;;;19.63;100.00
9421;BME280;4749;51.398;5.466;2022-09-09T13:38:28;100531.09;;;19.74;100.00
9421;BME280;4749;51.398;5.466;2022-09-09T13:41:03;100530.91;;;20.01;100.00
9421;BME280;4749;51.398;5.466;2022-09-09T13:43:52;100520.16;;;20.24;100.00
9421;BME280;4749;51.398;5.466;2022-09-09T13:46:40;100525.09;;;20.13;100.00
9421;BME280;4749;51.398;5.466;2022-09-09T13:54:10;100525.00;;;20.14;100.00
9421;BME280;4749;51.398;5.466;2022-09-09T13:56:39;100514.47;;;20.74;100.00
9421;BME280;4749;51.398;5.466;2022-09-09T13:59:13;100525.34;;;21.29;100.00
9421;BME280;4749;51.398;5.466;2022-09-09T14:01:42;100513.69;;;21.49;100.00
9421;BME280;4749;51.398;5.466;2022-09-09T14:04:10;100516.75;;;21.02;100.00
9421;BME280;4749;51.398;5.466;2022-09-09T14:06:38;100508.84;;;20.60;100.00
9421;BME280;4749;51.398;5.466;2022-09-09T14:09:09;59421.81;;;-144.16;100.00
9421;BME280;4749;51.398;5.466;2022-09-09T14:11:37;59421.81;;;-144.16;100.00
9421;BME280;4749;51.398;5.466;2022-09-09T14:14:04;59421.81;;;-144.16;100.00
9421;BME280;4749;51.398;5.466;2022-09-09T14:16:32;59421.81;;;-144.16;100.00
9421;BME280;4749;51.398;5.466;2022-09-09T14:18:59;59421.81;;;-144.16;100.00
9421;BME280;4749;51.398;5.466;2022-09-09T14:21:27;59421.81;;;-144.16;100.00
9421;BME280;4749;51.398;5.466;2022-09-09T14:23:55;59421.81;;;-144.16;100.00
9421;BME280;4749;51.398;5.466;2022-09-09T14:26:25;59421.81;;;-144.16;100.00
9421;BME280;4749;51.398;5.466;2022-09-09T14:28:52;59421.81;;;-144.16;100.00
9421;BME280;4749;51.398;5.466;2022-09-09T14:31:23;59421.81;;;-144.16;100.00
9421;BME280;4749;51.398;5.466;2022-09-09T14:33:51;59421.81;;;-144.16;100.00
9421;BME280;4749;51.398;5.466;2022-09-09T14:36:20;59421.81;;;-144.16;100.00
9421;BME280;4749;51.398;5.466;2022-09-09T14:38:48;59421.81;;;-144.16;100.00
9421;BME280;4749;51.398;5.466;2022-09-09T14:41:18;59421.81;;;-144.16;100.00
9421;BME280;4749;51.398;5.466;2022-09-09T14:43:46;59421.81;;;-144.16;100.00
9421;BME280;4749;51.398;5.466;2022-09-09T14:46:17;59421.81;;;-144.16;100.00
9421;BME280;4749;51.398;5.466;2022-09-09T14:48:45;59421.81;;;-144.16;100.00
9421;BME280;4749;51.398;5.466;2022-09-09T14:51:18;59421.81;;;-144.16;100.00
9421;BME280;4749;51.398;5.466;2022-09-09T14:53:46;59421.81;;;-144.16;100.00
9421;BME280;4749;51.398;5.466;2022-09-09T14:56:20;59421.81;;;-144.16;100.00
9421;BME280;4749;51.398;5.466;2022-09-09T14:58:49;59421.81;;;-144.16;100.00
9421;BME280;4749;51.398;5.466;2022-09-09T15:01:19;59421.81;;;-144.16;100.00
9421;BME280;4749;51.398;5.466;2022-09-09T15:06:20;59421.81;;;-144.16;100.00
9421;BME280;4749;51.398;5.466;2022-09-09T15:08:50;59421.81;;;-144.16;100.00
9421;BME280;4749;51.398;5.466;2022-09-09T15:11:17;59421.81;;;-144.16;100.00
9421;BME280;4749;51.398;5.466;2022-09-09T15:13:44;59421.81;;;-144.16;100.00
9421;BME280;4749;51.398;5.466;2022-09-09T15:16:17;59421.81;;;-144.16;100.00
9421;BME280;4749;51.398;5.466;2022-09-09T15:18:46;59421.81;;;-144.16;100.00
9421;BME280;4749;51.398;5.466;2022-09-09T15:21:17;59421.81;;;-144.16;100.00
9421;BME280;4749;51.398;5.466;2022-09-09T15:23:48;59421.81;;;-144.16;100.00
9421;BME280;4749;51.398;5.466;2022-09-09T15:26:28;59421.81;;;-144.16;100.00
9421;BME280;4749;51.398;5.466;2022-09-09T15:28:56;59421.81;;;-144.16;100.00
9421;BME280;4749;51.398;5.466;2022-09-09T15:31:31;59421.81;;;-144.16;100.00
9421;BME280;4749;51.398;5.466;2022-09-09T15:34:05;59421.81;;;-144.16;100.00
9421;BME280;4749;51.398;5.466;2022-09-09T15:36:35;59421.81;;;-144.16;100.00
9421;BME280;4749;51.398;5.466;2022-09-09T15:39:06;59421.81;;;-144.16;100.00
9421;BME280;4749;51.398;5.466;2022-09-09T15:41:33;59421.81;;;-144.16;100.00
9421;BME280;4749;51.398;5.466;2022-09-09T15:44:02;59421.81;;;-144.16;100.00
9421;BME280;4749;51.398;5.466;2022-09-09T15:46:37;59421.81;;;-144.16;100.00
9421;BME280;4749;51.398;5.466;2022-09-09T15:49:23;59421.81;;;-144.16;100.00
9421;BME280;4749;51.398;5.466;2022-09-09T15:51:58;59421.81;;;-144.16;100.00
9421;BME280;4749;51.398;5.466;2022-09-09T15:54:34;59421.81;;;-144.16;100.00
9421;BME280;4749;51.398;5.466;2022-09-09T15:57:05;59421.81;;;-144.16;100.00
9421;BME280;4749;51.398;5.466;2022-09-09T15:59:32;59421.81;;;-144.16;100.00